Pinehurst, Oregon
Current Conditions -  °F | °C
As of 7:20 AM on Wednesday 26 Nov 2014 (Local Time) from KSIY Reporting Station
Moderate Fog Moderate Fog  
Wind Chill: -1°   Ceiling: 300
Heat Index: -1°   Visibility: 0.5mi
Dew Point: -1°   Wind: 0mph
Humidity: 96%   Direction: NA
Pressure: 30.38"   Gusts: NA
Location:  42.11°N, 122.38°W
Report Text: KSIY 261520Z AUTO 00000KT 1/2SM FZFG OVC003 M01/M01 A3038 RMK AO2 T10061011
Loading
Personal Weather Stations






























Interactive Weather Map New forecast layout! Learn more

10-Day Weather Forecast

Advertisements
Track Severe Weather on mobile